Garden City Regional Airport Garden City US
ICAO: KGCK
IATA: GCK
Category: Medium
Scheduled Services: Yes

Elevation: 2891 ft
TransAlt. 18000 ft.

Airport Communications:
ASOS:121.325
KANSAS CITY CNTR:125.2
CTAF:118.15
GND:119
WICHITA RDO:122.45
TWR:118.15
UNICOM:122.95

KGCK Zoom In..

If you have problems with the map follow the link
https://www.worldairports.se/pages/airport.php?
ICAO=KGCK

Runways:

(A) RW 12 length 5700 ft width 100 ft
---- / hdg 126

(B) RW 17 length 7299 ft width 100 ft
---- / hdg 171

(C) RW 30 length 5700 ft width 100 ft
---- / hdg 306

(D) RW 35 length 7299 ft width 100 ft
ILS 109.90 / hdg 351

Location; KGCK
Day. 06 / Time. 12.54 Zulu
* Altimeter: 30.34
* Temperature: 00° c. 32°f.
* Wind from: 030° Speed 08 kn.
Dewpoint: -02° c.
Visibility: 10 Statute Miles.
Clouds: Overcast 900 ft.

KGCK 061254Z AUTO 03008KT 10SM OVC009 00/M02 A3034 RMK AO2 SLP287 T00001017


Wind From 030°
Speed 08 kn.

 
 
jpsmedia worldairports.se 2019   terms of use